Time;durP1;ratioP1;P1;durP2;ratioP2;P2;SDS_P1;SDS_P2;PMS_P1;PMS_P2;Temp;Humidity;BMP_temperature;BMP_pressure;BME280_temperature;BME280_humidity;BME280_pressure;Samples;Min_cycle;Max_cycle;Signal;HPM_P1;HPM_P2
2022/01/02 00:01:53;;;;;;;11.35;4.38;;;;;;;;;;5133680;27;20043;-80
2022/01/02 00:04:21;;;;;;;12.52;5.32;;;;;;;;;;5138906;27;20363;-80
2022/01/02 00:06:51;;;;;;;8.45;4.10;;;;;;;;;;5170552;27;20051;-79
2022/01/02 00:09:33;;;;;;;12.57;5.00;;;;;;;;;;5160236;27;20051;-80
2022/01/02 00:12:06;;;;;;;9.93;5.03;;;;;;;;;;5142081;27;20523;-80
2022/01/02 00:14:37;;;;;;;12.25;5.65;;;;;;;;;;5138211;27;20055;-80
2022/01/02 00:17:04;;;;;;;11.45;4.88;;;;;;;;;;5149736;27;20518;-81
2022/01/02 00:19:32;;;;;;;13.32;4.75;;;;;;;;;;5136982;27;20047;-80
2022/01/02 00:22:01;;;;;;;13.77;5.10;;;;;;;;;;5129857;27;20544;-79
2022/01/02 00:24:28;;;;;;;12.95;4.70;;;;;;;;;;5139575;27;20124;-80
2022/01/02 00:26:56;;;;;;;13.32;5.20;;;;;;;;;;5164322;27;20070;-80
2022/01/02 00:29:23;;;;;;;12.52;5.10;;;;;;;;;;5157589;27;20212;-79
2022/01/02 00:31:51;;;;;;;12.75;5.15;;;;;;;;;;5136735;27;20055;-79
2022/01/02 00:34:18;;;;;;;12.27;5.00;;;;;;;;;;5139143;27;20099;-79
2022/01/02 00:36:44;;;;;;;10.35;5.13;;;;;;;;;;5147427;27;20093;-79
2022/01/02 00:39:11;;;;;;;13.77;5.93;;;;;;;;;;5161785;27;20087;-80
2022/01/02 00:41:53;;;;;;;14.32;5.35;;;;;;;;;;5165956;27;20054;-79
2022/01/02 00:44:19;;;;;;;15.60;5.82;;;;;;;;;;5158751;27;20100;-79
2022/01/02 00:46:48;;;;;;;11.43;5.13;;;;;;;;;;5157740;27;20035;-79
2022/01/02 00:49:16;;;;;;;14.90;5.07;;;;;;;;;;5137003;27;20050;-80
2022/01/02 00:51:49;;;;;;;13.27;5.13;;;;;;;;;;5132991;27;20087;-79
2022/01/02 00:54:16;;;;;;;10.93;5.32;;;;;;;;;;5134498;27;20721;-79
2022/01/02 00:56:44;;;;;;;12.73;5.70;;;;;;;;;;5169846;27;20141;-79
2022/01/02 00:59:24;;;;;;;12.23;5.60;;;;;;;;;;5162593;27;20069;-79
2022/01/02 01:01:57;;;;;;;11.70;5.57;;;;;;;;;;5154817;27;20079;-79
2022/01/02 01:04:25;;;;;;;13.60;5.65;;;;;;;;;;5159780;27;20070;-80
2022/01/02 01:06:53;;;;;;;14.98;5.38;;;;;;;;;;5157069;27;20073;-79
2022/01/02 01:09:20;;;;;;;14.30;5.43;;;;;;;;;;5134823;27;20458;-79
2022/01/02 01:11:46;;;;;;;11.50;4.82;;;;;;;;;;5147000;27;20615;-80
2022/01/02 01:14:13;;;;;;;12.07;4.97;;;;;;;;;;5138101;27;20928;-80
2022/01/02 01:16:39;;;;;;;17.63;5.47;;;;;;;;;;5148171;27;20055;-80
2022/01/02 01:19:06;;;;;;;19.17;5.93;;;;;;;;;;5138193;27;20051;-79
2022/01/02 01:21:32;;;;;;;17.67;5.50;;;;;;;;;;5157874;27;21007;-79
2022/01/02 01:23:59;;;;;;;12.43;5.22;;;;;;;;;;5156962;27;20074;-79
2022/01/02 01:26:25;;;;;;;13.45;5.25;;;;;;;;;;5145807;27;20149;-80
2022/01/02 01:28:51;;;;;;;13.75;6.07;;;;;;;;;;5139969;27;20114;-80
2022/01/02 01:31:18;;;;;;;12.57;5.38;;;;;;;;;;5178207;27;20039;-80
2022/01/02 01:33:44;;;;;;;15.30;5.82;;;;;;;;;;5144761;27;20048;-79
2022/01/02 01:36:10;;;;;;;14.85;5.22;;;;;;;;;;5157691;27;20055;-80
2022/01/02 01:38:37;;;;;;;11.20;4.90;;;;;;;;;;5138337;27;20846;-79
2022/01/02 01:41:06;;;;;;;12.20;4.85;;;;;;;;;;5163110;27;20051;-80
2022/01/02 01:43:52;;;;;;;16.88;6.38;;;;;;;;;;5136967;27;20036;-80
2022/01/02 01:46:18;;;;;;;15.80;5.30;;;;;;;;;;5166625;27;20102;-80
2022/01/02 01:48:53;;;;;;;13.90;5.68;;;;;;;;;;5149898;27;20058;-80
2022/01/02 01:51:19;;;;;;;12.75;4.68;;;;;;;;;;5135355;27;20052;-80
2022/01/02 01:53:45;;;;;;;17.63;5.28;;;;;;;;;;5122847;27;20087;-80
2022/01/02 01:56:12;;;;;;;12.88;5.63;;;;;;;;;;5171839;27;20074;-80
2022/01/02 01:58:38;;;;;;;12.57;4.93;;;;;;;;;;5156992;27;20055;-80
2022/01/02 02:01:05;;;;;;;13.90;4.93;;;;;;;;;;5151277;27;20051;-80
2022/01/02 02:03:31;;;;;;;14.20;4.72;;;;;;;;;;5157334;27;20060;-80
2022/01/02 02:05:58;;;;;;;14.90;4.95;;;;;;;;;;5149972;27;20133;-80
2022/01/02 02:08:26;;;;;;;15.48;4.90;;;;;;;;;;5155696;27;20074;-80
2022/01/02 02:10:56;;;;;;;16.40;4.97;;;;;;;;;;5145615;27;20403;-80
2022/01/02 02:13:23;;;;;;;15.25;5.13;;;;;;;;;;5160361;27;20058;-80
2022/01/02 02:15:50;;;;;;;15.65;4.97;;;;;;;;;;5140475;27;20055;-80
2022/01/02 02:18:17;;;;;;;14.25;5.15;;;;;;;;;;5123114;27;20113;-80
2022/01/02 02:20:43;;;;;;;18.73;4.90;;;;;;;;;;5140415;27;20069;-79
2022/01/02 02:23:13;;;;;;;11.38;3.97;;;;;;;;;;5156906;27;20055;-80
2022/01/02 02:25:39;;;;;;;12.68;4.35;;;;;;;;;;5141422;27;20083;-80
2022/01/02 02:28:07;;;;;;;17.58;3.97;;;;;;;;;;5160416;27;20510;-80
2022/01/02 02:30:35;;;;;;;12.90;3.95;;;;;;;;;;5142827;27;20424;-80
2022/01/02 02:33:03;;;;;;;10.63;3.15;;;;;;;;;;5160005;27;20565;-80
2022/01/02 02:35:31;;;;;;;11.35;3.85;;;;;;;;;;5120809;27;20051;-80
2022/01/02 02:37:57;;;;;;;16.25;3.67;;;;;;;;;;5125999;27;20823;-80
2022/01/02 02:40:25;;;;;;;11.35;3.95;;;;;;;;;;5144487;27;20047;-79
2022/01/02 02:43:00;;;;;;;14.55;3.83;;;;;;;;;;5158469;27;20043;-80
2022/01/02 02:51:03;;;;;;;14.95;4.30;;;;;;;;;;5152184;27;20067;-80
2022/01/02 02:53:29;;;;;;;12.40;3.88;;;;;;;;;;5158161;27;20039;-80
2022/01/02 02:55:58;;;;;;;12.52;4.05;;;;;;;;;;5140960;27;20058;-80
2022/01/02 03:01:00;;;;;;;11.85;3.63;;;;;;;;;;5160263;27;20101;-80
2022/01/02 03:03:27;;;;;;;14.18;3.78;;;;;;;;;;5139506;27;20051;-80
2022/01/02 03:05:53;;;;;;;12.40;3.40;;;;;;;;;;5159786;27;20047;-80
2022/01/02 03:08:20;;;;;;;13.45;3.35;;;;;;;;;;5147849;27;20040;-80
2022/01/02 03:10:46;;;;;;;11.65;3.10;;;;;;;;;;5141540;27;20068;-80
2022/01/02 03:13:12;;;;;;;15.07;3.38;;;;;;;;;;5157685;27;20085;-80
2022/01/02 03:15:39;;;;;;;17.33;4.10;;;;;;;;;;5140918;27;20047;-80
2022/01/02 03:18:05;;;;;;;11.70;3.20;;;;;;;;;;5139917;27;20072;-80
2022/01/02 03:20:31;;;;;;;12.55;2.88;;;;;;;;;;5151580;27;20050;-80
2022/01/02 03:22:58;;;;;;;10.18;2.85;;;;;;;;;;5160144;27;20522;-80
2022/01/02 03:25:24;;;;;;;10.00;3.00;;;;;;;;;;5169474;27;20085;-80
2022/01/02 03:27:50;;;;;;;10.18;3.78;;;;;;;;;;5147917;27;20051;-80
2022/01/02 03:30:17;;;;;;;14.88;3.80;;;;;;;;;;5141129;27;20305;-80
2022/01/02 03:32:43;;;;;;;12.30;3.75;;;;;;;;;;5152604;27;20102;-79
2022/01/02 03:35:09;;;;;;;11.15;2.97;;;;;;;;;;5140074;27;20051;-80
2022/01/02 03:37:36;;;;;;;10.25;3.63;;;;;;;;;;5143066;27;20052;-80
2022/01/02 03:40:04;;;;;;;14.43;3.78;;;;;;;;;;5142060;27;20043;-80
2022/01/02 03:42:31;;;;;;;14.32;3.72;;;;;;;;;;5130265;27;20055;-80
2022/01/02 03:44:57;;;;;;;13.93;3.13;;;;;;;;;;5139001;27;20125;-80
2022/01/02 03:47:24;;;;;;;12.25;3.28;;;;;;;;;;5130143;27;20054;-80
2022/01/02 03:49:50;;;;;;;12.35;3.42;;;;;;;;;;5141859;27;20088;-80
2022/01/02 03:52:17;;;;;;;10.13;3.50;;;;;;;;;;5152279;27;20054;-80
2022/01/02 03:54:43;;;;;;;14.70;3.28;;;;;;;;;;5155104;27;20051;-80
2022/01/02 03:57:10;;;;;;;12.25;3.40;;;;;;;;;;5140366;27;20101;-80
2022/01/02 03:59:36;;;;;;;10.13;2.97;;;;;;;;;;5145317;27;20051;-80
2022/01/02 04:02:02;;;;;;;11.50;3.13;;;;;;;;;;5168479;27;20248;-80
2022/01/02 04:04:29;;;;;;;13.85;3.00;;;;;;;;;;5161860;27;20046;-80
2022/01/02 04:06:55;;;;;;;12.65;2.90;;;;;;;;;;5174871;27;20504;-80
2022/01/02 04:09:22;;;;;;;10.32;3.03;;;;;;;;;;5148162;27;20065;-80
2022/01/02 04:11:48;;;;;;;8.60;2.28;;;;;;;;;;5168213;27;20047;-80
2022/01/02 04:14:14;;;;;;;8.65;2.70;;;;;;;;;;5160981;27;20062;-80
2022/01/02 04:16:41;;;;;;;14.75;3.50;;;;;;;;;;5152141;27;20055;-80
2022/01/02 04:19:07;;;;;;;8.63;2.72;;;;;;;;;;5142546;27;20768;-81
2022/01/02 04:21:33;;;;;;;10.73;3.00;;;;;;;;;;5140687;27;20051;-80
2022/01/02 04:24:00;;;;;;;10.55;2.90;;;;;;;;;;5139361;27;20093;-80
2022/01/02 04:26:26;;;;;;;9.98;3.20;;;;;;;;;;5139459;27;20097;-80
2022/01/02 04:28:53;;;;;;;11.45;3.00;;;;;;;;;;5149394;27;20050;-80
2022/01/02 04:31:19;;;;;;;9.70;2.80;;;;;;;;;;5141075;27;20093;-80
2022/01/02 04:33:45;;;;;;;10.25;2.92;;;;;;;;;;5150875;27;20059;-80
2022/01/02 04:36:12;;;;;;;9.35;3.42;;;;;;;;;;5157715;27;20058;-80
2022/01/02 04:38:39;;;;;;;15.65;3.42;;;;;;;;;;5157386;27;20403;-80
2022/01/02 04:41:06;;;;;;;10.05;3.33;;;;;;;;;;5141741;27;20109;-80
2022/01/02 04:43:32;;;;;;;12.45;3.13;;;;;;;;;;5138494;27;20027;-79
2022/01/02 04:45:58;;;;;;;10.60;3.00;;;;;;;;;;5156649;27;20066;-79
2022/01/02 04:48:25;;;;;;;10.05;3.50;;;;;;;;;;5158699;27;20125;-79
2022/01/02 04:50:51;;;;;;;9.48;3.40;;;;;;;;;;5156961;27;20843;-79
2022/01/02 04:53:20;;;;;;;13.85;3.40;;;;;;;;;;5137419;27;20039;-79
2022/01/02 04:55:46;;;;;;;11.75;3.50;;;;;;;;;;5137814;27;20082;-79
2022/01/02 04:58:13;;;;;;;9.15;3.42;;;;;;;;;;5156952;27;20047;-79
2022/01/02 05:00:39;;;;;;;14.82;3.70;;;;;;;;;;5173066;27;20059;-79
2022/01/02 05:03:06;;;;;;;10.35;2.80;;;;;;;;;;5145021;27;20544;-79
2022/01/02 05:05:32;;;;;;;15.55;4.22;;;;;;;;;;5156647;27;20051;-79
2022/01/02 05:07:59;;;;;;;12.23;3.28;;;;;;;;;;5141107;27;20048;-79
2022/01/02 05:10:25;;;;;;;9.93;2.95;;;;;;;;;;5144769;27;20088;-79
2022/01/02 05:12:52;;;;;;;9.75;3.10;;;;;;;;;;5139351;27;20047;-80
2022/01/02 05:15:18;;;;;;;7.90;3.00;;;;;;;;;;5156703;27;20093;-80
2022/01/02 05:17:44;;;;;;;11.73;3.42;;;;;;;;;;5149662;27;20082;-80
2022/01/02 05:20:11;;;;;;;13.88;3.50;;;;;;;;;;5155774;27;20513;-80
2022/01/02 05:22:37;;;;;;;6.40;2.85;;;;;;;;;;5134194;27;20470;-80
2022/01/02 05:25:04;;;;;;;9.35;3.45;;;;;;;;;;5148685;27;20050;-79
2022/01/02 05:27:30;;;;;;;10.13;3.00;;;;;;;;;;5177817;27;20869;-80
2022/01/02 05:29:57;;;;;;;11.27;3.30;;;;;;;;;;5160073;27;20586;-80
2022/01/02 05:32:23;;;;;;;10.93;3.65;;;;;;;;;;5154916;27;20127;-80
2022/01/02 05:34:50;;;;;;;11.05;3.65;;;;;;;;;;5133022;27;20051;-79
2022/01/02 05:37:16;;;;;;;7.60;3.30;;;;;;;;;;5137714;27;20109;-80
2022/01/02 05:39:42;;;;;;;12.30;3.53;;;;;;;;;;5149393;27;20669;-79
2022/01/02 05:42:09;;;;;;;9.57;3.28;;;;;;;;;;5144339;27;20082;-80
2022/01/02 05:44:35;;;;;;;10.73;3.80;;;;;;;;;;5137961;27;20101;-79
2022/01/02 05:47:02;;;;;;;10.48;3.88;;;;;;;;;;5168398;27;20140;-79
2022/01/02 05:49:28;;;;;;;10.90;3.17;;;;;;;;;;5137685;27;20047;-80
2022/01/02 05:51:55;;;;;;;14.95;3.90;;;;;;;;;;5140458;27;20051;-79
2022/01/02 05:54:21;;;;;;;11.52;3.55;;;;;;;;;;5137776;27;20040;-79
2022/01/02 05:56:47;;;;;;;16.00;4.22;;;;;;;;;;5144146;27;20047;-80
2022/01/02 05:59:14;;;;;;;11.60;4.32;;;;;;;;;;5150121;27;20107;-79
2022/01/02 06:01:40;;;;;;;13.23;3.67;;;;;;;;;;5148121;27;20055;-79
2022/01/02 06:04:07;;;;;;;11.70;3.67;;;;;;;;;;5140417;27;20136;-79
2022/01/02 06:06:33;;;;;;;12.05;4.03;;;;;;;;;;5159014;27;20072;-80
2022/01/02 06:08:59;;;;;;;9.43;3.65;;;;;;;;;;5158211;27;20039;-79
2022/01/02 06:11:25;;;;;;;7.85;3.17;;;;;;;;;;5151365;27;20082;-79
2022/01/02 06:13:52;;;;;;;14.50;3.88;;;;;;;;;;5141864;27;20051;-80
2022/01/02 06:16:18;;;;;;;13.15;3.60;;;;;;;;;;5143953;27;20059;-79
2022/01/02 06:18:45;;;;;;;8.13;3.13;;;;;;;;;;5162157;27;20043;-80
2022/01/02 06:21:11;;;;;;;10.10;3.65;;;;;;;;;;5139467;27;20078;-80
2022/01/02 06:23:37;;;;;;;9.18;3.67;;;;;;;;;;5140357;27;20073;-79
2022/01/02 06:26:04;;;;;;;10.75;3.28;;;;;;;;;;5139743;27;20051;-80
2022/01/02 06:28:30;;;;;;;10.80;4.13;;;;;;;;;;5159792;27;20047;-80
2022/01/02 06:30:56;;;;;;;11.00;3.47;;;;;;;;;;5140725;27;20043;-80
2022/01/02 06:33:23;;;;;;;13.15;3.80;;;;;;;;;;5131580;27;20055;-80
2022/01/02 06:35:49;;;;;;;7.65;4.15;;;;;;;;;;5139022;27;20097;-80
2022/01/02 06:38:18;;;;;;;11.63;3.63;;;;;;;;;;5140257;27;20055;-80
2022/01/02 06:40:44;;;;;;;13.65;3.75;;;;;;;;;;5142662;27;20103;-79
2022/01/02 06:43:13;;;;;;;10.13;3.35;;;;;;;;;;5160749;27;20100;-80
2022/01/02 06:45:39;;;;;;;9.38;3.30;;;;;;;;;;5165992;27;20051;-80
2022/01/02 06:48:05;;;;;;;11.90;3.50;;;;;;;;;;5157671;27;20138;-80
2022/01/02 06:50:32;;;;;;;7.30;3.13;;;;;;;;;;5140552;27;20089;-80
2022/01/02 06:52:59;;;;;;;10.95;3.63;;;;;;;;;;5153593;27;20073;-79
2022/01/02 06:55:25;;;;;;;8.82;3.40;;;;;;;;;;5152790;27;20386;-79
2022/01/02 06:57:51;;;;;;;8.57;3.35;;;;;;;;;;5135105;27;20090;-79
2022/01/02 07:00:18;;;;;;;11.02;3.42;;;;;;;;;;5154239;27;20047;-79
2022/01/02 07:02:44;;;;;;;12.93;3.58;;;;;;;;;;5153294;27;20081;-79
2022/01/02 07:05:11;;;;;;;8.38;3.70;;;;;;;;;;5153161;27;20055;-79
2022/01/02 07:07:41;;;;;;;8.60;2.67;;;;;;;;;;5141164;27;20587;-79
2022/01/02 07:10:08;;;;;;;8.18;3.50;;;;;;;;;;5150825;27;20055;-79
2022/01/02 07:12:34;;;;;;;8.40;3.10;;;;;;;;;;5154112;27;20055;-79
2022/01/02 07:15:00;;;;;;;9.25;3.30;;;;;;;;;;5150915;27;20047;-79
2022/01/02 07:17:27;;;;;;;11.05;3.50;;;;;;;;;;5151606;27;20054;-79
2022/01/02 07:19:53;;;;;;;11.95;3.97;;;;;;;;;;5152380;27;20101;-79
2022/01/02 07:22:20;;;;;;;11.32;3.25;;;;;;;;;;5149025;27;20561;-79
2022/01/02 07:24:51;;;;;;;13.23;3.55;;;;;;;;;;5141591;27;20130;-79
2022/01/02 07:27:18;;;;;;;7.30;3.30;;;;;;;;;;5133486;27;20105;-79
2022/01/02 07:29:48;;;;;;;8.27;2.80;;;;;;;;;;5134435;27;20085;-79
2022/01/02 07:32:15;;;;;;;9.05;3.65;;;;;;;;;;5139735;27;20078;-79
2022/01/02 07:34:42;;;;;;;11.25;3.50;;;;;;;;;;5133989;27;20051;-79
2022/01/02 07:37:09;;;;;;;8.35;3.28;;;;;;;;;;5132857;27;20082;-79
2022/01/02 07:39:35;;;;;;;11.93;3.05;;;;;;;;;;5149101;27;20309;-79
2022/01/02 07:42:02;;;;;;;8.02;2.95;;;;;;;;;;5139191;27;20057;-80
2022/01/02 07:44:33;;;;;;;9.15;3.30;;;;;;;;;;5158500;27;20063;-80
2022/01/02 07:46:59;;;;;;;10.70;3.00;;;;;;;;;;5155700;27;20066;-80
2022/01/02 07:49:25;;;;;;;14.40;3.35;;;;;;;;;;5150658;27;20066;-79
2022/01/02 07:51:52;;;;;;;11.18;3.20;;;;;;;;;;5137364;27;20078;-80
2022/01/02 07:54:19;;;;;;;10.63;3.35;;;;;;;;;;5147992;27;20409;-80
2022/01/02 07:56:45;;;;;;;9.13;3.60;;;;;;;;;;5153508;27;20044;-80
2022/01/02 07:59:12;;;;;;;10.15;3.10;;;;;;;;;;5138353;27;20058;-80
2022/01/02 08:01:38;;;;;;;13.50;3.85;;;;;;;;;;5142763;27;20064;-79
2022/01/02 08:04:05;;;;;;;9.60;3.00;;;;;;;;;;5154345;27;20055;-80
2022/01/02 08:06:32;;;;;;;7.93;2.92;;;;;;;;;;5134986;27;20089;-80
2022/01/02 08:08:58;;;;;;;8.27;2.55;;;;;;;;;;5136609;27;20051;-80
2022/01/02 08:11:24;;;;;;;13.50;3.45;;;;;;;;;;5156063;27;20081;-80
2022/01/02 08:14:12;;;;;;;9.15;3.00;;;;;;;;;;5143297;27;20058;-79
2022/01/02 08:16:38;;;;;;;10.30;3.45;;;;;;;;;;5142007;27;20087;-80
2022/01/02 08:19:08;;;;;;;9.55;3.20;;;;;;;;;;5146627;27;20138;-79
2022/01/02 08:21:34;;;;;;;11.43;3.35;;;;;;;;;;5157531;27;20047;-80
2022/01/02 08:24:01;;;;;;;6.70;2.75;;;;;;;;;;5153440;27;20043;-79
2022/01/02 08:26:28;;;;;;;11.18;3.17;;;;;;;;;;5153639;27;20486;-80
2022/01/02 08:28:54;;;;;;;9.82;3.20;;;;;;;;;;5142860;27;20588;-80
2022/01/02 08:31:21;;;;;;;9.57;3.30;;;;;;;;;;5153916;27;20039;-80
2022/01/02 08:33:47;;;;;;;11.80;3.38;;;;;;;;;;5156498;27;20138;-80
2022/01/02 08:36:14;;;;;;;8.18;2.92;;;;;;;;;;5147413;27;20136;-80
2022/01/02 08:38:40;;;;;;;9.63;3.90;;;;;;;;;;5157550;27;20707;-80
2022/01/02 08:41:06;;;;;;;10.50;2.97;;;;;;;;;;5155427;27;20602;-80
2022/01/02 08:43:34;;;;;;;8.30;3.03;;;;;;;;;;5157222;27;20043;-79
2022/01/02 08:46:01;;;;;;;7.13;2.85;;;;;;;;;;5153437;27;20574;-80
2022/01/02 08:48:27;;;;;;;8.90;3.47;;;;;;;;;;5155730;27;20066;-80
2022/01/02 08:50:54;;;;;;;9.57;2.97;;;;;;;;;;5160931;27;20047;-80
2022/01/02 08:53:20;;;;;;;10.75;3.47;;;;;;;;;;5154974;27;20099;-80
2022/01/02 08:55:47;;;;;;;8.50;3.25;;;;;;;;;;5137440;27;20040;-79
2022/01/02 08:58:13;;;;;;;6.60;3.28;;;;;;;;;;5143864;27;20101;-79
2022/01/02 09:00:40;;;;;;;8.75;3.50;;;;;;;;;;5148082;27;20058;-80
2022/01/02 09:03:06;;;;;;;11.23;3.53;;;;;;;;;;5135593;27;20051;-80
2022/01/02 09:05:33;;;;;;;8.65;3.30;;;;;;;;;;5154163;27;20108;-80
2022/01/02 09:07:59;;;;;;;8.88;3.20;;;;;;;;;;5137494;27;20051;-79
2022/01/02 09:10:26;;;;;;;8.23;2.88;;;;;;;;;;5133732;27;20493;-79
2022/01/02 09:12:52;;;;;;;7.60;3.15;;;;;;;;;;5126669;27;20062;-79
2022/01/02 09:15:19;;;;;;;7.95;3.42;;;;;;;;;;5139055;27;20225;-80
2022/01/02 09:17:45;;;;;;;8.50;3.20;;;;;;;;;;5134680;27;20046;-80
2022/01/02 09:20:13;;;;;;;6.88;3.05;;;;;;;;;;5135134;27;20082;-80
2022/01/02 09:22:43;;;;;;;7.75;3.00;;;;;;;;;;5146328;27;20067;-80
2022/01/02 09:25:10;;;;;;;7.68;3.22;;;;;;;;;;5136835;27;20402;-80
2022/01/02 09:27:37;;;;;;;12.13;3.80;;;;;;;;;;5154702;27;20062;-80
2022/01/02 09:30:04;;;;;;;6.55;3.25;;;;;;;;;;5136169;27;20109;-79
2022/01/02 09:32:32;;;;;;;10.63;3.33;;;;;;;;;;5165631;27;20047;-79
2022/01/02 09:34:59;;;;;;;7.65;3.88;;;;;;;;;;5143054;27;20058;-80
2022/01/02 09:37:28;;;;;;;10.02;3.47;;;;;;;;;;5143285;27;20055;-80
2022/01/02 09:39:55;;;;;;;8.68;3.60;;;;;;;;;;5147115;27;20039;-79
2022/01/02 09:42:21;;;;;;;11.65;4.10;;;;;;;;;;5131214;27;20055;-80
2022/01/02 09:44:48;;;;;;;7.18;3.58;;;;;;;;;;5141865;27;20100;-80
2022/01/02 09:47:15;;;;;;;9.25;3.92;;;;;;;;;;5142436;27;20105;-80
2022/01/02 09:49:41;;;;;;;8.85;4.10;;;;;;;;;;5121562;27;20044;-79
2022/01/02 09:52:07;;;;;;;8.20;4.20;;;;;;;;;;5127667;27;20175;-79
2022/01/02 09:54:34;;;;;;;9.70;3.85;;;;;;;;;;5141633;27;21007;-80
2022/01/02 09:57:02;;;;;;;7.38;4.05;;;;;;;;;;5125604;27;20101;-80
2022/01/02 09:59:28;;;;;;;7.55;4.30;;;;;;;;;;5141150;27;20051;-80
2022/01/02 10:01:55;;;;;;;9.93;4.75;;;;;;;;;;5159803;27;20055;-79
2022/01/02 10:04:32;;;;;;;11.27;4.82;;;;;;;;;;5160487;27;20134;-79
2022/01/02 10:06:59;;;;;;;8.82;4.28;;;;;;;;;;5141790;27;20087;-79
2022/01/02 10:09:30;;;;;;;10.18;4.40;;;;;;;;;;5142261;27;20083;-79
2022/01/02 10:12:16;;;;;;;10.57;5.18;;;;;;;;;;5136328;27;20059;-79
2022/01/02 10:14:43;;;;;;;8.32;4.40;;;;;;;;;;5138168;27;20039;-80
2022/01/02 10:17:10;;;;;;;9.70;4.35;;;;;;;;;;5143856;27;20100;-80
2022/01/02 10:19:38;;;;;;;12.98;4.65;;;;;;;;;;5144948;27;20058;-80
2022/01/02 10:22:06;;;;;;;14.00;4.55;;;;;;;;;;5143659;27;20051;-80
2022/01/02 10:24:33;;;;;;;9.32;4.43;;;;;;;;;;5136156;27;20048;-80
2022/01/02 10:27:11;;;;;;;13.25;4.70;;;;;;;;;;5139442;27;20569;-80
2022/01/02 10:29:50;;;;;;;13.10;3.90;;;;;;;;;;5159157;27;20055;-80
2022/01/02 10:32:22;;;;;;;10.90;4.10;;;;;;;;;;5123424;27;20051;-80
2022/01/02 10:34:49;;;;;;;11.98;3.95;;;;;;;;;;5143536;27;20109;-80
2022/01/02 10:37:22;;;;;;;11.68;4.20;;;;;;;;;;5166590;27;20095;-80
2022/01/02 10:39:49;;;;;;;9.60;4.15;;;;;;;;;;5165090;27;20054;-81
2022/01/02 10:42:17;;;;;;;9.90;4.40;;;;;;;;;;5139505;27;20055;-80
2022/01/02 10:44:43;;;;;;;10.07;4.35;;;;;;;;;;5158961;27;20055;-80
2022/01/02 10:47:09;;;;;;;12.60;5.07;;;;;;;;;;5146218;27;20036;-80
2022/01/02 10:49:58;;;;;;;9.45;4.63;;;;;;;;;;5149678;27;20063;-79
2022/01/02 10:52:32;;;;;;;10.73;4.90;;;;;;;;;;5139376;27;20144;-80
2022/01/02 10:55:00;;;;;;;12.95;4.75;;;;;;;;;;5130735;27;20048;-80
2022/01/02 10:57:27;;;;;;;14.90;4.93;;;;;;;;;;5147385;27;20051;-78
2022/01/02 10:59:58;;;;;;;15.38;5.28;;;;;;;;;;5121765;27;20558;-78
2022/01/02 11:02:25;;;;;;;13.48;4.57;;;;;;;;;;5147180;27;20055;-78
2022/01/02 11:04:55;;;;;;;11.32;4.70;;;;;;;;;;5150382;27;20055;-78
2022/01/02 11:07:23;;;;;;;19.90;5.13;;;;;;;;;;5146470;27;20055;-80
2022/01/02 11:09:56;;;;;;;9.50;4.10;;;;;;;;;;5127373;27;20051;-78
2022/01/02 11:12:25;;;;;;;11.95;4.55;;;;;;;;;;5133109;27;20062;-78
2022/01/02 11:14:52;;;;;;;11.93;4.47;;;;;;;;;;5134188;27;20081;-78
2022/01/02 11:17:18;;;;;;;12.30;4.32;;;;;;;;;;5137778;27;20051;-79
2022/01/02 11:19:45;;;;;;;13.73;4.60;;;;;;;;;;5155229;27;20073;-79
2022/01/02 11:22:13;;;;;;;13.48;5.03;;;;;;;;;;5130744;27;20070;-79
2022/01/02 11:24:59;;;;;;;15.63;5.43;;;;;;;;;;5135020;27;20109;-79
2022/01/02 11:27:29;;;;;;;15.07;4.65;;;;;;;;;;5131875;27;20163;-79
2022/01/02 11:29:57;;;;;;;12.65;4.38;;;;;;;;;;5120829;27;20082;-79
2022/01/02 11:32:25;;;;;;;13.82;5.30;;;;;;;;;;5131936;27;20047;-79
2022/01/02 11:34:51;;;;;;;12.32;4.75;;;;;;;;;;5137994;27;20060;-79
2022/01/02 11:37:22;;;;;;;12.23;4.50;;;;;;;;;;5161564;27;20092;-79
2022/01/02 11:39:49;;;;;;;;;;;;;;;;;;5154429;27;20047;-79
2022/01/02 11:42:34;;;;;;;10.70;3.67;;;;;;;;;;5130970;27;46812;-79
2022/01/02 11:45:02;;;;;;;11.82;4.38;;;;;;;;;;5153485;27;20055;-79
2022/01/02 11:47:39;;;;;;;15.10;4.35;;;;;;;;;;5149662;27;20058;-79
2022/01/02 11:50:28;;;;;;;11.30;3.83;;;;;;;;;;5136474;27;20113;-79
2022/01/02 11:53:09;;;;;;;11.30;4.32;;;;;;;;;;5151933;27;20051;-78
2022/01/02 11:55:37;;;;;;;12.10;4.32;;;;;;;;;;5133596;27;20044;-79
2022/01/02 11:58:04;;;;;;;16.05;4.30;;;;;;;;;;5141398;27;20051;-79
2022/01/02 12:00:34;;;;;;;14.60;3.70;;;;;;;;;;5153929;27;20082;-78
2022/01/02 12:03:02;;;;;;;19.48;4.18;;;;;;;;;;5153812;27;20051;-79
2022/01/02 12:05:28;;;;;;;16.65;3.90;;;;;;;;;;5137471;27;20133;-78
2022/01/02 12:07:55;;;;;;;13.82;4.13;;;;;;;;;;5135036;27;20055;-78
2022/01/02 12:10:24;;;;;;;12.07;3.33;;;;;;;;;;5147115;27;20112;-79
2022/01/02 12:12:59;;;;;;;17.13;3.70;;;;;;;;;;5123359;27;20051;-79
2022/01/02 12:18:10;;;;;;;16.95;3.67;;;;;;;;;;5153912;27;20551;-79
2022/01/02 12:20:52;;;;;;;11.98;3.42;;;;;;;;;;5135039;27;20132;-79
2022/01/02 12:23:34;;;;;;;20.58;3.97;;;;;;;;;;5127947;27;20549;-79
2022/01/02 12:26:08;;;;;;;17.38;3.97;;;;;;;;;;5132956;27;20658;-78
2022/01/02 12:28:37;;;;;;;18.20;3.53;;;;;;;;;;5148805;27;20952;-78
2022/01/02 12:31:08;;;;;;;13.30;2.83;;;;;;;;;;5145164;27;20104;-79
2022/01/02 12:33:35;;;;;;;13.27;3.15;;;;;;;;;;5149587;27;20063;-78
2022/01/02 12:36:17;;;;;;;14.35;3.03;;;;;;;;;;5165255;27;20096;-79
2022/01/02 12:38:49;;;;;;;11.25;3.08;;;;;;;;;;5127902;27;20156;-79
2022/01/02 12:41:15;;;;;;;;;;;;;;;;;;5137803;27;20112;-79
2022/01/02 12:44:02;;;;;;;14.45;3.28;;;;;;;;;;5130253;27;47182;-79
2022/01/02 12:46:34;;;;;;;13.98;2.58;;;;;;;;;;5132485;27;20086;-79
2022/01/02 12:49:02;;;;;;;12.00;2.45;;;;;;;;;;5125486;27;20055;-78
2022/01/02 12:51:29;;;;;;;14.73;3.03;;;;;;;;;;5152407;27;20111;-78
2022/01/02 12:54:00;;;;;;;12.75;2.97;;;;;;;;;;5146657;27;20573;-78
2022/01/02 12:56:31;;;;;;;11.70;2.58;;;;;;;;;;5149484;27;20055;-79
2022/01/02 12:59:13;;;;;;;15.77;3.25;;;;;;;;;;5148245;27;20653;-79
2022/01/02 13:01:46;;;;;;;16.20;2.90;;;;;;;;;;5128936;27;20086;-79
2022/01/02 13:04:13;;;;;;;15.60;2.67;;;;;;;;;;5127554;27;20047;-79
2022/01/02 13:06:43;;;;;;;14.93;2.50;;;;;;;;;;5128891;27;20595;-78
2022/01/02 13:09:09;;;;;;;12.98;2.50;;;;;;;;;;5135554;27;20070;-79
2022/01/02 13:11:36;;;;;;;16.33;2.53;;;;;;;;;;5145988;27;20116;-79
2022/01/02 13:14:02;;;;;;;15.93;2.45;;;;;;;;;;5132135;27;20093;-78
2022/01/02 13:16:29;;;;;;;10.43;2.35;;;;;;;;;;5141596;27;20051;-79
2022/01/02 13:18:56;;;;;;;12.45;2.28;;;;;;;;;;5130397;27;20458;-79
2022/01/02 13:21:24;;;;;;;12.98;2.85;;;;;;;;;;5143245;27;21858;-79
2022/01/02 13:23:51;;;;;;;18.63;2.70;;;;;;;;;;5129788;27;20051;-79
2022/01/02 13:26:18;;;;;;;16.23;2.85;;;;;;;;;;5133079;27;20080;-79
2022/01/02 13:28:45;;;;;;;14.70;3.00;;;;;;;;;;5127276;27;20078;-79
2022/01/02 13:31:11;;;;;;;16.20;3.30;;;;;;;;;;5148410;27;20075;-79
2022/01/02 13:33:43;;;;;;;15.07;2.70;;;;;;;;;;5147958;27;20055;-79
2022/01/02 13:36:11;;;;;;;18.17;2.95;;;;;;;;;;5128505;27;20537;-78
2022/01/02 13:38:53;;;;;;;15.88;3.10;;;;;;;;;;5155938;27;20104;-79
2022/01/02 13:41:20;;;;;;;13.95;3.25;;;;;;;;;;5149740;27;20517;-78
2022/01/02 13:43:47;;;;;;;17.85;3.42;;;;;;;;;;5142262;27;20059;-78
2022/01/02 13:46:13;;;;;;;19.83;3.03;;;;;;;;;;5137256;27;20055;-78
2022/01/02 13:48:39;;;;;;;17.85;3.10;;;;;;;;;;5145622;27;20055;-79
2022/01/02 13:51:13;;;;;;;17.15;3.20;;;;;;;;;;5150763;27;20599;-78
2022/01/02 13:53:39;;;;;;;15.98;3.08;;;;;;;;;;5147025;27;20055;-78
2022/01/02 13:56:06;;;;;;;16.48;3.10;;;;;;;;;;5127550;27;20581;-79
2022/01/02 13:58:34;;;;;;;17.10;3.80;;;;;;;;;;5133307;27;20615;-79
2022/01/02 14:01:01;;;;;;;20.10;3.65;;;;;;;;;;5141468;27;20062;-78
2022/01/02 14:03:28;;;;;;;15.10;2.85;;;;;;;;;;5149155;27;20425;-78
2022/01/02 14:05:55;;;;;;;15.18;3.03;;;;;;;;;;5121310;27;20079;-78
2022/01/02 14:08:21;;;;;;;18.63;2.40;;;;;;;;;;5114752;27;20055;-79
2022/01/02 14:11:01;;;;;;;14.65;2.85;;;;;;;;;;5148567;27;20497;-79
2022/01/02 14:13:27;;;;;;;19.60;2.95;;;;;;;;;;5135937;27;20815;-79
2022/01/02 14:16:03;;;;;;;14.32;2.50;;;;;;;;;;5146328;27;20116;-78
2022/01/02 14:18:30;;;;;;;16.85;2.67;;;;;;;;;;5123440;27;20047;-78
2022/01/02 14:21:00;;;;;;;17.98;2.58;;;;;;;;;;5132307;27;20085;-78
2022/01/02 14:23:30;;;;;;;9.65;2.20;;;;;;;;;;5128243;27;20085;-79
2022/01/02 14:25:57;;;;;;;21.07;3.20;;;;;;;;;;5161694;27;20052;-78
2022/01/02 14:28:24;;;;;;;17.55;3.17;;;;;;;;;;5142900;27;20561;-79
2022/01/02 14:30:51;;;;;;;23.20;4.18;;;;;;;;;;5124901;27;20215;-78
2022/01/02 14:33:18;;;;;;;18.20;5.40;;;;;;;;;;5144262;27;20502;-78
2022/01/02 14:35:45;;;;;;;21.48;4.25;;;;;;;;;;5138359;27;20054;-78
2022/01/02 14:38:14;;;;;;;14.15;2.70;;;;;;;;;;5154991;27;20050;-78
2022/01/02 14:40:41;;;;;;;17.75;5.57;;;;;;;;;;5148808;27;20065;-78
2022/01/02 14:43:08;;;;;;;19.05;4.80;;;;;;;;;;5130435;27;20101;-78
2022/01/02 14:45:35;;;;;;;15.63;3.35;;;;;;;;;;5145503;27;20086;-78
2022/01/02 14:48:02;;;;;;;16.20;7.10;;;;;;;;;;5148588;27;20078;-78
2022/01/02 14:50:28;;;;;;;17.38;3.17;;;;;;;;;;5131398;27;20079;-78